createdAt,value
2017-12-02T00:02:36.925Z,6.93
2017-12-02T00:17:35.124Z,5.83
2017-12-02T00:32:35.092Z,4.00
2017-12-02T00:47:34.408Z,3.50
2017-12-02T01:02:36.165Z,3.40
2017-12-02T01:17:34.292Z,2.70
2017-12-02T01:32:34.308Z,3.20
2017-12-02T01:47:36.123Z,1.40
2017-12-02T02:02:34.610Z,1.20
2017-12-02T02:17:37.499Z,2.10
2017-12-02T02:32:34.517Z,6.67
2017-12-02T02:47:34.831Z,6.47
2017-12-02T03:02:37.555Z,5.87
2017-12-02T03:17:36.764Z,5.43
2017-12-02T03:32:34.725Z,4.20
2017-12-02T03:47:35.091Z,2.53
2017-12-02T04:02:34.582Z,2.00
2017-12-02T04:17:34.974Z,2.07
2017-12-02T04:32:34.924Z,2.50
2017-12-02T04:47:38.856Z,2.60
2017-12-02T05:02:34.034Z,4.17
2017-12-02T05:17:37.254Z,7.37
2017-12-02T05:32:37.144Z,6.30
2017-12-02T05:47:34.535Z,5.70
2017-12-02T06:02:34.287Z,5.00
2017-12-02T06:17:34.428Z,12.77
2017-12-02T06:32:36.331Z,7.63
2017-12-02T06:47:34.332Z,13.60
2017-12-02T07:02:36.723Z,18.10
2017-12-02T07:17:34.739Z,14.10
2017-12-02T07:32:34.587Z,5.10
2017-12-02T07:47:35.084Z,4.33
2017-12-02T08:02:34.900Z,6.70
2017-12-02T08:17:34.855Z,6.30
2017-12-02T08:32:34.936Z,4.80
2017-12-02T08:47:34.256Z,5.00
2017-12-02T09:02:35.009Z,8.63
2017-12-02T09:17:35.110Z,5.43
2017-12-02T09:32:35.051Z,4.93
2017-12-02T09:47:34.452Z,4.90
2017-12-02T10:02:34.436Z,6.97
2017-12-02T10:17:34.376Z,8.70
2017-12-02T10:32:34.276Z,7.07
2017-12-02T10:47:34.205Z,5.73
2017-12-02T11:02:35.316Z,5.10
2017-12-02T11:17:34.557Z,9.43
2017-12-02T11:32:37.488Z,7.40
2017-12-02T11:47:37.147Z,8.40
2017-12-02T12:02:36.888Z,4.30
2017-12-02T12:17:34.807Z,3.73
2017-12-02T12:32:34.759Z,4.90
2017-12-02T12:47:36.216Z,12.10
2017-12-02T13:02:35.883Z,11.10
2017-12-02T13:17:34.592Z,8.13
2017-12-02T13:32:34.992Z,40.07
2017-12-02T13:47:34.391Z,22.90
2017-12-02T14:02:34.360Z,18.10
2017-12-02T14:17:34.809Z,22.77
2017-12-02T14:32:34.254Z,24.93
2017-12-02T14:47:34.430Z,35.47
2017-12-02T15:02:34.893Z,26.73
2017-12-02T15:17:38.004Z,18.53
2017-12-02T15:32:35.531Z,30.60
2017-12-02T15:47:34.921Z,58.93
2017-12-02T16:02:37.874Z,65.03
2017-12-02T16:17:35.302Z,41.40
2017-12-02T16:32:33.981Z,39.13
2017-12-02T16:47:34.628Z,48.93
2017-12-02T17:02:38.901Z,42.00
2017-12-02T17:17:36.506Z,37.50
2017-12-02T17:32:34.957Z,52.63
2017-12-02T17:47:35.611Z,50.23
2017-12-02T18:02:36.688Z,56.13
2017-12-02T18:17:35.522Z,73.57
2017-12-02T18:32:33.647Z,53.93
2017-12-02T18:47:35.861Z,55.17
2017-12-02T19:02:36.540Z,70.63
2017-12-02T19:17:37.106Z,79.57
2017-12-02T19:32:38.808Z,73.10
2017-12-02T19:47:37.030Z,43.90
2017-12-02T20:02:35.194Z,80.70
2017-12-02T20:17:38.048Z,79.37
2017-12-02T20:32:34.673Z,59.07
2017-12-02T20:47:36.367Z,62.90
2017-12-02T21:02:37.274Z,64.47
2017-12-02T21:17:33.776Z,86.13
2017-12-02T21:32:36.852Z,112.47
2017-12-02T21:47:33.558Z,105.97
2017-12-02T22:02:33.224Z,105.57
2017-12-02T22:17:32.966Z,111.17
2017-12-02T22:32:34.149Z,94.03
2017-12-02T22:47:34.520Z,47.67
2017-12-02T23:02:33.733Z,51.83
2017-12-02T23:17:33.658Z,50.60
2017-12-02T23:32:36.649Z,57.43
2017-12-02T23:47:35.012Z,63.13
